Time;durP1;ratioP1;P1;durP2;ratioP2;P2;SDS_P1;SDS_P2;PMS_P1;PMS_P2;Temp;Humidity;BMP_temperature;BMP_pressure;BME280_temperature;BME280_humidity;BME280_pressure;Samples;Min_cycle;Max_cycle;Signal;HPM_P1;HPM_P2
2022/10/15 00:02:06;;;;;;;1.95;0.60;;;;;;;17.73;100.00;99389.22;5073509;28;20020;-64
2022/10/15 00:04:32;;;;;;;0.65;0.50;;;;;;;17.73;100.00;99381.16;5089150;28;20027;-65
2022/10/15 00:06:58;;;;;;;2.05;0.50;;;;;;;17.76;100.00;99375.56;5092031;28;20060;-64
2022/10/15 00:09:24;;;;;;;2.63;0.50;;;;;;;17.75;100.00;99379.22;5074430;28;20063;-65
2022/10/15 00:11:49;;;;;;;3.00;0.57;;;;;;;17.79;100.00;99386.09;5073370;28;20027;-65
2022/10/15 00:14:14;;;;;;;1.35;0.50;;;;;;;17.79;100.00;99382.56;5073503;28;20032;-65
2022/10/15 00:16:40;;;;;;;1.15;0.55;;;;;;;17.81;100.00;99389.53;5073657;28;20027;-64
2022/10/15 00:19:05;;;;;;;0.70;0.50;;;;;;;17.80;100.00;99390.53;5074196;28;20029;-65
2022/10/15 00:21:31;;;;;;;0.80;0.40;;;;;;;17.80;100.00;99387.81;5074244;28;20027;-65
2022/10/15 00:23:57;;;;;;;2.00;0.70;;;;;;;17.83;100.00;99392.97;5074282;28;20442;-65
2022/10/15 00:26:25;;;;;;;3.80;0.75;;;;;;;17.74;100.00;99382.88;5073722;28;20111;-64
2022/10/15 00:28:53;;;;;;;2.15;1.10;;;;;;;17.87;100.00;99383.72;5073797;28;20024;-65
2022/10/15 00:31:19;;;;;;;3.00;0.90;;;;;;;17.89;100.00;99386.31;5073777;28;20089;-64
2022/10/15 00:33:47;;;;;;;2.30;0.63;;;;;;;17.87;100.00;99391.81;5073979;28;20032;-64
2022/10/15 00:36:15;;;;;;;1.88;0.80;;;;;;;17.85;100.00;99395.56;5073884;28;20028;-64
2022/10/15 00:38:41;;;;;;;5.55;0.95;;;;;;;17.88;100.00;99388.13;5073707;28;20103;-65
2022/10/15 00:41:11;;;;;;;2.97;0.80;;;;;;;17.88;100.00;99390.81;5073783;28;20544;-65
2022/10/15 00:43:43;;;;;;;3.67;0.65;;;;;;;17.88;100.00;99389.94;5073258;28;20026;-65
2022/10/15 00:46:16;;;;;;;3.83;0.80;;;;;;;17.92;100.00;99397.69;5073924;28;20357;-64
2022/10/15 00:48:45;;;;;;;3.55;1.02;;;;;;;17.91;100.00;99397.78;5073463;28;20059;-65
2022/10/15 00:51:10;;;;;;;2.60;1.15;;;;;;;17.93;100.00;99399.44;5073955;28;20024;-65
2022/10/15 00:53:36;;;;;;;2.65;0.70;;;;;;;17.93;100.00;99398.56;5073145;28;20047;-64
2022/10/15 00:56:02;;;;;;;1.30;0.65;;;;;;;17.94;100.00;99401.13;5073541;28;20423;-65
2022/10/15 00:58:31;;;;;;;1.58;0.60;;;;;;;17.95;100.00;99402.00;5073004;28;20139;-65
2022/10/15 01:00:57;;;;;;;2.17;1.23;;;;;;;17.94;100.00;99403.81;5073229;28;20020;-65
2022/10/15 01:03:23;;;;;;;3.05;0.70;;;;;;;17.95;100.00;99396.63;5074840;28;20008;-65
2022/10/15 01:05:51;;;;;;;2.92;0.63;;;;;;;17.96;100.00;99404.56;5091614;28;20123;-66
2022/10/15 01:08:16;;;;;;;4.68;1.20;;;;;;;17.98;100.00;99396.41;5072112;28;20029;-66
2022/10/15 01:11:02;;;;;;;5.00;1.00;;;;;;;17.99;100.00;99403.50;5067962;28;20020;-66
2022/10/15 01:13:43;;;;;;;2.85;0.70;;;;;;;17.97;100.00;99398.22;5073030;28;20028;-66
2022/10/15 01:16:18;;;;;;;2.92;0.73;;;;;;;18.00;100.00;99403.41;5073070;28;20052;-66
2022/10/15 01:18:54;;;;;;;1.85;0.60;;;;;;;17.98;100.00;99402.66;5072932;28;20521;-66
2022/10/15 01:21:33;;;;;;;1.52;0.60;;;;;;;17.97;100.00;99398.22;5072518;28;20016;-66
2022/10/15 01:24:10;;;;;;;4.38;0.82;;;;;;;17.98;100.00;99391.00;5072836;28;20092;-66
2022/10/15 01:27:07;;;;;;;1.40;0.63;;;;;;;18.02;100.00;99387.13;5072884;28;20154;-66
2022/10/15 01:29:55;;;;;;;0.60;0.50;;;;;;;18.04;100.00;99385.16;5072009;28;20025;-65
2022/10/15 01:32:27;;;;;;;2.83;0.70;;;;;;;18.03;100.00;99388.84;5072911;28;20510;-65
2022/10/15 01:35:03;;;;;;;0.63;0.40;;;;;;;18.02;100.00;99395.22;5072382;28;20037;-66
2022/10/15 01:37:40;;;;;;;1.50;0.60;;;;;;;17.98;100.00;99375.72;5072839;28;20031;-66
2022/10/15 01:40:16;;;;;;;1.10;0.57;;;;;;;18.07;100.00;99387.66;5072769;28;20039;-66
2022/10/15 01:42:56;;;;;;;0.70;0.52;;;;;;;18.04;100.00;99386.03;5072547;28;20063;-65
2022/10/15 01:45:42;;;;;;;0.65;0.50;;;;;;;18.03;100.00;99380.78;5072810;28;20442;-65
2022/10/15 01:48:10;;;;;;;2.78;0.88;;;;;;;18.09;100.00;99389.25;5072554;28;20020;-65
2022/10/15 01:50:42;;;;;;;1.13;0.40;;;;;;;18.11;100.00;99390.00;5072166;28;20090;-65
2022/10/15 01:53:10;;;;;;;1.50;0.45;;;;;;;18.09;100.00;99391.94;5054276;28;20092;-66
2022/10/15 01:55:39;;;;;;;3.95;0.65;;;;;;;18.10;100.00;99396.34;5072185;28;20038;-65
2022/10/15 01:58:07;;;;;;;0.90;0.38;;;;;;;18.09;100.00;99397.34;5072308;28;20024;-65
2022/10/15 02:00:33;;;;;;;0.98;0.35;;;;;;;18.11;100.00;99391.84;5055460;28;20024;-66
2022/10/15 02:03:01;;;;;;;0.65;0.40;;;;;;;18.10;100.00;99398.19;5092168;28;20023;-65
2022/10/15 02:05:44;;;;;;;3.13;0.47;;;;;;;18.08;100.00;99401.00;5092334;28;20046;-65
2022/10/15 02:08:22;;;;;;;3.72;0.70;;;;;;;18.10;100.00;99407.13;5092212;28;20028;-65
2022/10/15 02:11:12;;;;;;;0.93;0.50;;;;;;;18.11;100.00;99408.84;5092116;28;20036;-65
2022/10/15 02:13:53;;;;;;;0.45;0.30;;;;;;;18.16;100.00;99405.81;5091458;28;20019;-66
2022/10/15 02:16:22;;;;;;;0.38;0.32;;;;;;;18.13;100.00;99409.59;5091404;28;20027;-66
2022/10/15 02:19:10;;;;;;;0.30;0.30;;;;;;;18.15;100.00;99417.56;5090881;28;20032;-66
2022/10/15 02:21:45;;;;;;;4.95;0.60;;;;;;;18.13;100.00;99417.69;5091298;28;20058;-66
2022/10/15 02:24:24;;;;;;;0.73;0.50;;;;;;;18.10;100.00;99411.66;5082081;28;20506;-67
2022/10/15 02:26:56;;;;;;;1.30;0.50;;;;;;;18.10;100.00;99412.50;5071143;28;20112;-66
2022/10/15 02:29:25;;;;;;;1.35;0.60;;;;;;;18.01;100.00;99402.41;5071555;28;20475;-66
2022/10/15 02:31:52;;;;;;;1.00;0.65;;;;;;;18.09;100.00;99409.91;5071843;28;20028;-66
2022/10/15 02:34:21;;;;;;;1.10;0.60;;;;;;;18.10;100.00;99425.13;5071243;28;20077;-66
2022/10/15 02:36:48;;;;;;;0.85;0.50;;;;;;;18.11;100.00;99419.63;5071704;28;20028;-66
2022/10/15 02:39:19;;;;;;;1.70;0.70;;;;;;;18.12;100.00;99413.25;5071566;28;20055;-67
2022/10/15 02:41:45;;;;;;;1.98;0.40;;;;;;;18.10;100.00;99407.13;5071506;28;20025;-66
2022/10/15 02:44:11;;;;;;;0.32;0.32;;;;;;;18.08;100.00;99409.09;5071374;28;20020;-65
2022/10/15 02:46:36;;;;;;;1.55;0.50;;;;;;;18.09;100.00;99418.00;5071512;28;20391;-66
2022/10/15 02:49:02;;;;;;;0.47;0.45;;;;;;;18.10;100.00;99419.75;5071296;28;20373;-66
2022/10/15 02:51:31;;;;;;;0.65;0.65;;;;;;;18.09;100.00;99415.31;5071187;28;20029;-66
2022/10/15 02:53:56;;;;;;;0.55;0.43;;;;;;;18.07;100.00;99431.56;5071044;28;20031;-66
2022/10/15 02:56:22;;;;;;;2.20;0.50;;;;;;;18.10;100.00;99423.25;5071228;28;20033;-65
2022/10/15 02:58:47;;;;;;;0.63;0.47;;;;;;;18.10;100.00;99427.81;5071242;28;20032;-66
2022/10/15 03:01:12;;;;;;;1.27;0.55;;;;;;;18.11;100.00;99418.75;5071269;28;20447;-66
2022/10/15 03:03:38;;;;;;;1.85;0.40;;;;;;;18.10;100.00;99422.44;5078992;28;20110;-66
2022/10/15 03:06:04;;;;;;;0.80;0.50;;;;;;;18.10;100.00;99423.25;5091340;28;20352;-66
2022/10/15 03:08:30;;;;;;;0.60;0.50;;;;;;;18.05;100.00;99420.06;5091345;28;20031;-66
2022/10/15 03:11:00;;;;;;;1.40;0.40;;;;;;;18.06;100.00;99426.31;5090933;28;20089;-66
2022/10/15 03:13:26;;;;;;;2.83;0.70;;;;;;;18.09;100.00;99434.16;5083130;28;20032;-66
2022/10/15 03:15:51;;;;;;;0.57;0.55;;;;;;;18.11;100.00;99433.09;5070815;28;20031;-67
2022/10/15 03:18:17;;;;;;;1.33;0.55;;;;;;;18.12;100.00;99429.41;5069490;28;20638;-66
2022/10/15 03:20:42;;;;;;;0.80;0.50;;;;;;;18.03;100.00;99416.63;5069763;28;20135;-66
2022/10/15 03:23:08;;;;;;;2.22;0.60;;;;;;;18.09;100.00;99426.06;5069858;28;20105;-66
2022/10/15 03:25:33;;;;;;;0.47;0.40;;;;;;;18.13;100.00;99432.97;5069166;28;20024;-65
2022/10/15 03:27:58;;;;;;;0.47;0.40;;;;;;;18.11;100.00;99443.84;5070144;28;20055;-66
2022/10/15 03:30:24;;;;;;;1.48;0.40;;;;;;;18.11;100.00;99441.16;5069447;28;20103;-65
2022/10/15 03:32:49;;;;;;;0.40;0.40;;;;;;;18.13;100.00;99433.84;5052840;28;20024;-66
2022/10/15 03:35:15;;;;;;;2.28;0.68;;;;;;;18.11;100.00;99441.16;5070790;28;20100;-65
2022/10/15 03:37:40;;;;;;;2.85;0.47;;;;;;;18.13;100.00;99443.72;5070792;28;20024;-65
2022/10/15 03:40:07;;;;;;;1.75;0.50;;;;;;;18.13;100.00;99444.59;5070567;28;20380;-66
2022/10/15 03:42:32;;;;;;;0.55;0.50;;;;;;;18.11;100.00;99437.59;5070847;28;20028;-65
2022/10/15 03:44:57;;;;;;;0.80;0.40;;;;;;;18.10;100.00;99444.78;5070712;28;20384;-66
2022/10/15 03:47:23;;;;;;;1.65;0.52;;;;;;;18.13;100.00;99444.59;5070575;28;20036;-65
2022/10/15 03:49:48;;;;;;;0.60;0.40;;;;;;;18.11;100.00;99445.66;5070545;28;20047;-65
2022/10/15 03:52:14;;;;;;;2.45;0.50;;;;;;;18.09;100.00;99444.91;5070680;28;20674;-65
2022/10/15 03:54:40;;;;;;;1.85;0.70;;;;;;;18.10;100.00;99450.19;5052579;28;20365;-65
2022/10/15 03:57:05;;;;;;;3.67;1.20;;;;;;;18.08;100.00;99445.91;5070764;28;20052;-65
2022/10/15 03:59:30;;;;;;;1.63;0.70;;;;;;;18.10;100.00;99450.19;5070662;28;20090;-65
2022/10/15 04:01:56;;;;;;;1.88;0.55;;;;;;;18.09;100.00;99461.94;5070729;28;20059;-65
2022/10/15 04:04:21;;;;;;;1.85;0.90;;;;;;;18.09;100.00;99458.38;5084179;28;20467;-66
2022/10/15 04:06:47;;;;;;;1.55;0.60;;;;;;;18.10;100.00;99463.63;5087246;28;20051;-65
2022/10/15 04:09:14;;;;;;;0.93;0.55;;;;;;;18.03;100.00;99453.44;5070368;28;20025;-66
2022/10/15 04:11:40;;;;;;;2.13;0.55;;;;;;;18.08;100.00;99470.13;5070505;28;20031;-65
2022/10/15 04:14:05;;;;;;;3.90;0.70;;;;;;;18.07;100.00;99463.88;5070615;28;20103;-65
2022/10/15 04:16:31;;;;;;;1.92;0.40;;;;;;;18.02;100.00;99451.72;5070504;28;20552;-65
2022/10/15 04:18:57;;;;;;;5.28;0.73;;;;;;;18.07;100.00;99454.97;5070560;28;20514;-65
2022/10/15 04:21:26;;;;;;;2.80;0.47;;;;;;;18.06;100.00;99455.91;5070244;28;20107;-65
2022/10/15 04:23:51;;;;;;;3.17;0.52;;;;;;;18.07;100.00;99465.72;5070125;28;20104;-66
2022/10/15 04:26:17;;;;;;;2.25;0.57;;;;;;;18.05;100.00;99463.13;5069198;28;20029;-65
2022/10/15 04:28:42;;;;;;;3.83;0.63;;;;;;;18.05;100.00;99468.53;5070392;28;20024;-66
2022/10/15 04:31:08;;;;;;;0.82;0.60;;;;;;;18.06;100.00;99474.75;5070218;28;20036;-65
2022/10/15 04:33:34;;;;;;;0.60;0.60;;;;;;;18.06;100.00;99480.13;5070370;28;20435;-66
2022/10/15 04:36:06;;;;;;;0.75;0.40;;;;;;;18.01;100.00;99477.78;5070337;28;20475;-65
2022/10/15 04:38:32;;;;;;;4.82;1.25;;;;;;;18.03;100.00;99483.91;5070350;28;20036;-65
2022/10/15 04:41:03;;;;;;;2.65;0.60;;;;;;;18.00;100.00;99485.97;5070032;28;20016;-65
2022/10/15 04:43:28;;;;;;;2.03;0.65;;;;;;;18.03;100.00;99489.28;5055399;28;20483;-65
2022/10/15 04:45:58;;;;;;;3.13;0.80;;;;;;;18.03;100.00;99491.13;5073646;28;20074;-65
2022/10/15 04:48:26;;;;;;;0.75;0.60;;;;;;;18.02;100.00;99495.63;5073862;28;20056;-65
2022/10/15 04:50:51;;;;;;;1.98;1.10;;;;;;;18.02;100.00;99484.88;5073548;28;20031;-65
2022/10/15 04:53:17;;;;;;;5.55;1.33;;;;;;;18.02;100.00;99484.03;5073570;28;20665;-65
2022/10/15 04:55:42;;;;;;;2.17;0.90;;;;;;;18.03;100.00;99488.44;5073474;28;20383;-65
2022/10/15 04:58:07;;;;;;;3.60;1.00;;;;;;;18.02;100.00;99497.47;5073336;28;20027;-65
2022/10/15 05:00:33;;;;;;;3.60;1.20;;;;;;;18.02;100.00;99495.63;5073398;28;20074;-65
2022/10/15 05:02:58;;;;;;;2.95;1.50;;;;;;;18.01;100.00;99504.69;5075776;28;20595;-65
2022/10/15 05:05:24;;;;;;;1.55;0.60;;;;;;;17.99;100.00;99506.63;5093034;28;20115;-65
2022/10/15 05:07:49;;;;;;;2.97;0.70;;;;;;;17.98;100.00;99510.28;5088363;28;20432;-65
2022/10/15 05:10:15;;;;;;;1.05;0.70;;;;;;;17.98;100.00;99507.59;5073279;28;20028;-65
2022/10/15 05:12:40;;;;;;;1.20;0.70;;;;;;;17.97;100.00;99507.72;5073298;28;20111;-66
2022/10/15 05:15:06;;;;;;;2.60;1.10;;;;;;;17.95;100.00;99515.91;5072820;28;20384;-65
2022/10/15 05:17:31;;;;;;;3.58;0.60;;;;;;;17.92;100.00;99516.09;5055381;28;20041;-65
2022/10/15 05:19:57;;;;;;;1.65;0.63;;;;;;;17.94;100.00;99513.31;5072740;28;20035;-65
2022/10/15 05:22:23;;;;;;;1.42;0.70;;;;;;;17.90;100.00;99509.97;5072834;28;20051;-65
2022/10/15 05:24:48;;;;;;;1.88;0.70;;;;;;;17.91;100.00;99513.50;5071839;28;20099;-65
2022/10/15 05:27:13;;;;;;;5.38;0.95;;;;;;;17.89;100.00;99516.31;5073001;28;20024;-65
2022/10/15 05:29:39;;;;;;;4.90;0.77;;;;;;;17.90;100.00;99528.81;5072958;28;20060;-65
2022/10/15 05:32:05;;;;;;;1.85;0.95;;;;;;;17.88;100.00;99519.97;5072528;28;20025;-65
2022/10/15 05:34:30;;;;;;;1.67;0.63;;;;;;;17.87;100.00;99518.28;5072268;28;20029;-65
2022/10/15 05:36:56;;;;;;;2.25;0.75;;;;;;;17.84;100.00;99523.84;5072548;28;20029;-65
2022/10/15 05:39:21;;;;;;;5.30;1.02;;;;;;;17.82;100.00;99525.81;5072641;28;20024;-65
2022/10/15 05:41:48;;;;;;;2.17;0.75;;;;;;;17.79;100.00;99523.28;5072609;28;20467;-64
2022/10/15 05:44:14;;;;;;;2.35;0.88;;;;;;;17.76;100.00;99518.13;5072892;28;20361;-65
2022/10/15 05:46:40;;;;;;;1.58;0.88;;;;;;;17.81;100.00;99533.94;5072824;28;20034;-65
2022/10/15 05:49:05;;;;;;;2.20;0.80;;;;;;;17.80;100.00;99532.25;5072307;28;20520;-65
2022/10/15 05:51:30;;;;;;;3.03;0.90;;;;;;;17.81;100.00;99539.31;5072356;28;20029;-66
2022/10/15 05:53:58;;;;;;;2.92;0.90;;;;;;;17.81;100.00;99539.31;5071551;28;20056;-66
2022/10/15 05:56:24;;;;;;;3.22;1.88;;;;;;;17.83;100.00;99540.97;5072169;28;20055;-66
2022/10/15 05:58:50;;;;;;;2.45;1.00;;;;;;;17.83;100.00;99535.59;5072512;28;20085;-66
2022/10/15 06:01:16;;;;;;;3.13;0.95;;;;;;;17.86;100.00;99543.44;5072406;28;20032;-66
2022/10/15 06:03:42;;;;;;;2.92;1.40;;;;;;;17.86;100.00;99534.50;5079612;28;20501;-65
2022/10/15 06:06:14;;;;;;;2.78;1.00;;;;;;;17.87;100.00;99538.94;5090065;28;20060;-66
2022/10/15 06:08:39;;;;;;;5.27;1.53;;;;;;;17.90;100.00;99544.09;5073118;28;20028;-66
2022/10/15 06:11:05;;;;;;;5.15;1.30;;;;;;;17.92;100.00;99537.63;5053354;28;20554;-66
2022/10/15 06:13:30;;;;;;;3.60;1.80;;;;;;;17.97;100.00;99545.38;5064009;28;20025;-66
2022/10/15 06:15:56;;;;;;;3.05;1.10;;;;;;;17.99;100.00;99555.06;5061865;28;20037;-66
2022/10/15 06:18:21;;;;;;;2.25;1.25;;;;;;;18.03;100.00;99551.19;5053584;28;20135;-65
2022/10/15 06:20:51;;;;;;;4.93;1.33;;;;;;;18.05;100.00;99551.97;5065584;28;20472;-66
2022/10/15 06:23:17;;;;;;;4.65;0.70;;;;;;;18.07;100.00;99552.69;5071496;28;20432;-65
2022/10/15 06:25:44;;;;;;;2.53;0.70;;;;;;;18.08;100.00;99554.44;5068031;28;20055;-65
2022/10/15 06:28:10;;;;;;;1.02;0.50;;;;;;;18.08;100.00;99565.19;5053693;28;20104;-66
2022/10/15 06:30:35;;;;;;;3.72;1.10;;;;;;;18.09;100.00;99568.72;5070577;28;20474;-65
2022/10/15 06:33:00;;;;;;;2.33;1.20;;;;;;;18.08;100.00;99570.59;5053701;28;20024;-66
2022/10/15 06:35:29;;;;;;;2.03;0.70;;;;;;;18.08;100.00;99569.72;5051645;28;20127;-66
2022/10/15 06:37:55;;;;;;;0.75;0.60;;;;;;;18.08;100.00;99570.59;5056658;28;20017;-66
2022/10/15 06:40:20;;;;;;;2.65;0.93;;;;;;;18.08;100.00;99570.59;5062126;28;20104;-66
2022/10/15 06:42:46;;;;;;;2.28;0.90;;;;;;;18.12;100.00;99572.06;5059479;28;20116;-66
2022/10/15 06:45:11;;;;;;;3.33;1.45;;;;;;;18.16;100.00;99573.59;5064885;28;20107;-66
2022/10/15 06:47:39;;;;;;;2.15;1.20;;;;;;;18.19;100.00;99583.28;5064306;28;20042;-67
2022/10/15 06:50:05;;;;;;;1.77;0.80;;;;;;;18.22;100.00;99580.34;5051032;28;20035;-66
2022/10/15 06:52:33;;;;;;;4.05;0.90;;;;;;;18.18;100.00;99578.88;5054094;28;20102;-66
2022/10/15 06:54:58;;;;;;;1.85;1.00;;;;;;;18.22;100.00;99577.66;5052127;28;20476;-66
2022/10/15 06:57:25;;;;;;;3.13;0.70;;;;;;;18.16;100.00;99584.38;5066317;28;20059;-65
2022/10/15 06:59:51;;;;;;;1.60;0.90;;;;;;;18.19;100.00;99586.84;5069626;28;20028;-67
2022/10/15 07:02:18;;;;;;;0.75;0.57;;;;;;;18.14;100.00;99588.97;5070619;28;20031;-67
2022/10/15 07:04:44;;;;;;;2.50;0.70;;;;;;;18.17;100.00;99590.63;5079622;28;20021;-66
2022/10/15 07:07:09;;;;;;;6.30;0.80;;;;;;;18.17;100.00;99583.38;5057124;28;20397;-66
2022/10/15 07:09:35;;;;;;;4.13;0.88;;;;;;;18.22;100.00;99586.63;5056112;28;20033;-66
2022/10/15 07:12:01;;;;;;;1.60;0.90;;;;;;;18.23;100.00;99593.75;5054007;28;20542;-66
2022/10/15 07:14:26;;;;;;;2.63;1.20;;;;;;;18.25;100.00;99594.47;5061179;28;20471;-66
2022/10/15 07:16:52;;;;;;;3.05;1.10;;;;;;;18.25;100.00;99594.47;5051766;28;20410;-66
2022/10/15 07:19:17;;;;;;;2.22;1.10;;;;;;;18.25;100.00;99594.47;5052805;28;20029;-66
2022/10/15 07:21:45;;;;;;;3.67;1.60;;;;;;;18.25;100.00;99599.84;5066926;28;20060;-67
2022/10/15 07:24:11;;;;;;;2.13;0.77;;;;;;;18.22;100.00;99597.38;5070376;28;20530;-66
2022/10/15 07:26:36;;;;;;;1.27;0.73;;;;;;;18.24;100.00;99602.66;5055186;28;20025;-66
2022/10/15 07:29:02;;;;;;;1.95;1.10;;;;;;;18.25;100.00;99593.63;5063449;28;20044;-65
2022/10/15 07:31:28;;;;;;;1.33;0.75;;;;;;;18.25;100.00;99597.16;5052620;28;20021;-66
2022/10/15 07:33:55;;;;;;;1.83;0.90;;;;;;;18.27;100.00;99591.66;5069152;28;20054;-66
2022/10/15 07:36:20;;;;;;;1.67;0.80;;;;;;;18.35;100.00;99595.53;5053712;28;20025;-66
2022/10/15 07:38:46;;;;;;;1.90;1.00;;;;;;;18.42;100.00;99595.16;5034747;28;20387;-67
2022/10/15 07:41:12;;;;;;;3.25;1.30;;;;;;;18.46;100.00;99591.25;5053351;28;20496;-66
2022/10/15 07:43:37;;;;;;;0.90;0.60;;;;;;;18.47;100.00;99590.31;5063025;28;20530;-64
2022/10/15 07:46:03;;;;;;;1.88;1.05;;;;;;;18.49;100.00;99588.34;5056562;28;20104;-64
2022/10/15 07:48:29;;;;;;;3.90;1.20;;;;;;;18.49;100.00;99596.44;5060116;28;20060;-64
2022/10/15 07:51:00;;;;;;;1.65;0.90;;;;;;;18.47;100.00;99595.69;5057987;28;20029;-65
2022/10/15 07:53:26;;;;;;;3.80;1.08;;;;;;;18.45;100.00;99600.31;5053538;28;20047;-64
2022/10/15 07:55:52;;;;;;;2.63;0.88;;;;;;;18.47;100.00;99603.78;5033707;28;20384;-65
2022/10/15 07:58:17;;;;;;;1.33;0.90;;;;;;;18.46;100.00;99607.41;5062598;28;20033;-64
2022/10/15 08:00:43;;;;;;;3.50;1.77;;;;;;;18.46;100.00;99602.03;5053557;28;20035;-65
2022/10/15 08:03:08;;;;;;;3.03;0.80;;;;;;;18.47;100.00;99603.78;5054160;28;20101;-65
2022/10/15 08:05:34;;;;;;;3.63;0.90;;;;;;;18.49;100.00;99608.06;5051447;28;20044;-65
2022/10/15 08:07:59;;;;;;;3.70;0.88;;;;;;;18.47;100.00;99609.16;5058235;28;20056;-65
2022/10/15 08:10:25;;;;;;;1.85;0.65;;;;;;;18.49;100.00;99612.59;5069942;28;20032;-65
2022/10/15 08:12:51;;;;;;;2.97;0.82;;;;;;;18.46;100.00;99618.19;5068238;28;20036;-64
2022/10/15 08:15:17;;;;;;;3.08;0.90;;;;;;;18.41;100.00;99614.97;5066967;28;20031;-64
2022/10/15 08:17:42;;;;;;;1.58;0.80;;;;;;;18.39;100.00;99623.16;5070092;28;20471;-64
2022/10/15 08:20:08;;;;;;;3.88;0.82;;;;;;;18.41;100.00;99621.22;5060183;28;20087;-64
2022/10/15 08:22:34;;;;;;;1.70;0.88;;;;;;;18.40;100.00;99624.03;5054021;28;20021;-64
2022/10/15 08:24:59;;;;;;;2.53;0.77;;;;;;;18.36;100.00;99618.81;5055756;28;20140;-64
2022/10/15 08:27:25;;;;;;;3.10;0.93;;;;;;;18.43;100.00;99619.28;5056180;28;20032;-65
2022/10/15 08:29:51;;;;;;;2.15;1.00;;;;;;;18.44;100.00;99614.75;5067969;28;20043;-64
2022/10/15 08:32:16;;;;;;;2.13;0.77;;;;;;;18.45;100.00;99628.09;5066261;28;20033;-65
2022/10/15 08:34:41;;;;;;;2.97;0.80;;;;;;;18.51;100.00;99621.44;5055085;28;20415;-65
2022/10/15 08:37:07;;;;;;;1.63;1.00;;;;;;;18.53;100.00;99622.19;5046057;28;20028;-64
2022/10/15 08:39:32;;;;;;;1.65;0.63;;;;;;;18.53;100.00;99631.13;5055857;28;20555;-64
2022/10/15 08:42:04;;;;;;;6.82;1.10;;;;;;;18.53;100.00;99635.66;5054809;28;20025;-65
2022/10/15 08:44:50;;;;;;;1.15;0.90;;;;;;;18.50;100.00;99638.56;5055221;28;20468;-65
2022/10/15 08:47:21;;;;;;;2.13;0.88;;;;;;;18.52;100.00;99633.94;5061603;28;20060;-65
2022/10/15 08:49:52;;;;;;;1.00;0.70;;;;;;;18.54;100.00;99637.38;5066120;28;20111;-65
2022/10/15 08:52:34;;;;;;;3.25;1.60;;;;;;;18.59;100.00;99637.91;5061168;28;20039;-66
2022/10/15 08:55:00;;;;;;;3.35;0.80;;;;;;;18.58;100.00;99647.84;5058305;28;20024;-65
2022/10/15 08:57:35;;;;;;;2.10;0.93;;;;;;;18.59;100.00;99646.84;5074034;28;20485;-65
2022/10/15 09:00:12;;;;;;;2.85;1.10;;;;;;;18.61;100.00;99646.75;5053989;28;20039;-64
2022/10/15 09:02:46;;;;;;;2.63;1.20;;;;;;;18.63;100.00;99642.13;5059819;28;20021;-65
2022/10/15 09:05:30;;;;;;;6.55;1.13;;;;;;;18.68;100.00;99645.34;5056602;28;20029;-65
2022/10/15 09:08:02;;;;;;;;;;;;;;;18.57;100.00;99648.78;5037041;28;20068;-65
2022/10/15 09:10:38;;;;;;;2.17;1.08;;;;;;;18.54;100.00;99631.97;5062214;28;19920;-65
2022/10/15 09:13:41;;;;;;;1.30;0.70;;;;;;;18.63;100.00;99636.72;5059983;28;20024;-65
2022/10/15 09:16:18;;;;;;;1.75;1.20;;;;;;;18.65;100.00;99642.88;5048888;28;20484;-66
2022/10/15 09:18:50;;;;;;;4.30;1.65;;;;;;;18.69;100.00;99642.53;5058733;28;20122;-66
2022/10/15 09:21:15;;;;;;;3.85;1.50;;;;;;;18.76;100.00;99640.25;5055494;28;20032;-66
2022/10/15 09:23:43;;;;;;;3.55;1.60;;;;;;;18.81;100.00;99646.19;5060499;28;20822;-66
2022/10/15 09:26:08;;;;;;;5.75;1.70;;;;;;;18.91;100.00;99631.91;5055381;28;20090;-66
2022/10/15 09:28:39;;;;;;;5.07;1.60;;;;;;;19.04;100.00;99648.06;5055264;28;20029;-65
2022/10/15 09:31:09;;;;;;;6.20;1.55;;;;;;;19.17;100.00;99635.41;5061547;28;20028;-66
2022/10/15 09:33:45;;;;;;;2.78;1.55;;;;;;;19.32;100.00;99653.19;5055851;28;20040;-66
2022/10/15 09:36:28;;;;;;;2.90;1.27;;;;;;;19.42;100.00;99648.84;5056914;28;20085;-66
2022/10/15 09:38:54;;;;;;;;;;;;;;;19.40;100.00;99646.28;5055691;28;20020;-66
2022/10/15 09:41:29;;;;;;;2.20;1.05;;;;;;;19.44;100.00;99653.13;5053743;28;20372;-66
2022/10/15 09:43:58;;;;;;;2.72;0.82;;;;;;;19.51;100.00;99643.63;5053020;28;20049;-66
2022/10/15 09:46:23;;;;;;;2.08;1.00;;;;;;;19.56;100.00;99646.84;5052570;28;20025;-66
2022/10/15 09:48:59;;;;;;;2.90;1.13;;;;;;;19.56;100.00;99654.06;5060841;28;20024;-66
2022/10/15 09:51:31;;;;;;;3.47;0.82;;;;;;;19.61;100.00;99649.19;5051918;28;20028;-65
2022/10/15 09:54:27;;;;;;;1.90;0.90;;;;;;;19.63;100.00;99658.03;5052023;28;20083;-65
2022/10/15 09:56:55;;;;;;;2.03;1.27;;;;;;;19.69;100.00;99659.41;5057104;28;20039;-65
2022/10/15 09:59:21;;;;;;;1.30;0.68;;;;;;;19.66;100.00;99657.78;5057931;28;20041;-66
2022/10/15 10:02:02;;;;;;;1.95;0.77;;;;;;;19.59;100.00;99652.00;5061832;28;20098;-65
2022/10/15 10:04:33;;;;;;;3.45;1.20;;;;;;;19.64;100.00;99644.41;5052817;28;20017;-66
2022/10/15 10:07:06;;;;;;;1.63;0.70;;;;;;;19.70;100.00;99653.91;5051999;28;20045;-65
2022/10/15 10:09:54;;;;;;;3.15;0.85;;;;;;;19.76;100.00;99658.81;5056052;28;20021;-65
2022/10/15 10:12:33;;;;;;;5.13;1.13;;;;;;;19.82;100.00;99657.50;5059000;28;20024;-66
2022/10/15 10:15:02;;;;;;;2.70;0.98;;;;;;;19.88;100.00;99652.50;5056220;28;20541;-65
2022/10/15 10:17:29;;;;;;;2.22;1.10;;;;;;;20.05;100.00;99660.16;5055583;28;20032;-65
2022/10/15 10:20:13;;;;;;;2.97;1.20;;;;;;;20.09;100.00;99663.47;5051101;28;20062;-65
2022/10/15 10:22:57;;;;;;;2.83;0.95;;;;;;;20.11;100.00;99669.63;5056728;28;20025;-65
2022/10/15 10:25:28;;;;;;;3.75;0.98;;;;;;;20.21;100.00;99670.69;5052117;28;20028;-65
2022/10/15 10:28:10;;;;;;;2.67;0.90;;;;;;;20.24;100.00;99665.03;5054869;28;20025;-65
2022/10/15 10:30:41;;;;;;;2.63;1.02;;;;;;;20.41;100.00;99661.91;5054197;28;20044;-67
2022/10/15 10:33:12;;;;;;;3.72;0.90;;;;;;;20.52;100.00;99660.06;5053125;28;20055;-65
2022/10/15 10:35:46;;;;;;;2.92;0.93;;;;;;;20.74;100.00;99664.63;5055256;28;20028;-65
2022/10/15 10:38:32;;;;;;;1.75;0.85;;;;;;;20.80;100.00;99659.59;5054062;28;20635;-66
2022/10/15 10:41:09;;;;;;;4.90;1.13;;;;;;;20.87;100.00;99657.28;5055381;28;20511;-66
2022/10/15 10:43:37;;;;;;;2.90;1.00;;;;;;;20.77;100.00;99654.41;5054514;28;20033;-66
2022/10/15 10:46:13;;;;;;;5.47;1.20;;;;;;;20.63;99.64;99657.38;5056553;28;20493;-66
2022/10/15 10:48:41;;;;;;;4.97;1.05;;;;;;;20.48;100.00;99660.41;5051713;28;20107;-67
2022/10/15 10:51:09;;;;;;;2.22;1.05;;;;;;;20.32;100.00;99658.06;5057790;28;20044;-67
2022/10/15 10:53:45;;;;;;;2.78;1.20;;;;;;;20.22;100.00;99659.75;5036756;28;20035;-67
2022/10/15 10:56:12;;;;;;;3.35;1.17;;;;;;;20.21;100.00;99666.16;5061251;28;20056;-67
2022/10/15 10:58:38;;;;;;;4.50;0.88;;;;;;;20.18;100.00;99655.56;5055667;28;20037;-66
2022/10/15 11:01:03;;;;;;;2.55;0.70;;;;;;;20.22;100.00;99669.69;5055896;28;20035;-66
2022/10/15 11:03:34;;;;;;;2.50;0.93;;;;;;;20.21;100.00;99660.75;5055307;28;20051;-67
2022/10/15 11:06:28;;;;;;;4.30;1.10;;;;;;;20.15;100.00;99669.31;5052253;28;20125;-67
2022/10/15 11:09:08;;;;;;;3.88;1.35;;;;;;;20.01;100.00;99671.31;5057287;28;20021;-66
2022/10/15 11:11:52;;;;;;;4.55;2.78;;;;;;;19.99;100.00;99673.25;5059439;28;20029;-67
2022/10/15 11:14:43;;;;;;;3.03;1.35;;;;;;;19.90;100.00;99665.88;5052291;28;20025;-67
2022/10/15 11:17:24;;;;;;;3.03;1.27;;;;;;;19.82;100.00;99666.44;5055029;28;20471;-65
2022/10/15 11:20:07;;;;;;;3.63;1.65;;;;;;;19.76;100.00;99664.22;5054356;28;20447;-65
2022/10/15 11:23:03;;;;;;;3.42;1.42;;;;;;;19.69;100.00;99675.63;5058341;28;20427;-64
2022/10/15 11:25:33;;;;;;;3.63;1.23;;;;;;;19.67;100.00;99665.78;5053618;28;20019;-64
2022/10/15 11:28:04;;;;;;;3.55;1.60;;;;;;;19.60;100.00;99658.28;5056117;28;20486;-64
2022/10/15 11:30:50;;;;;;;3.85;1.60;;;;;;;19.61;100.00;99658.16;5052901;28;20508;-64
2022/10/15 11:33:21;;;;;;;7.20;1.58;;;;;;;19.51;100.00;99658.94;5053404;28;20029;-64
2022/10/15 11:36:00;;;;;;;4.32;1.88;;;;;;;19.44;100.00;99660.38;5057673;28;20029;-64
2022/10/15 11:38:44;;;;;;;4.68;1.90;;;;;;;19.50;100.00;99657.22;5053784;28;20059;-66